Riviera Beach, FL (33404)

9:37 PM EDT on July 30, 2016 (GMT -0400)
Singer Island | | Change Station

Elev 23 ft 26.79 °N, 80.04 °W | Updated 13 minutes ago

Scattered Clouds
Scattered Clouds
84.7 °F
Feels Like 94 °F
N
1.7
Wind Variable Wind from North

Today
High -- | Low -- °F
--% Chance of Precip.
Yesterday
High -- | Low -- °F
Precip. -- in
Pressure 30.06 in
Visibility 10.0 miles
Clouds Few 2500 ft
Scattered Clouds 3500 ft
Scattered Clouds 25000 ft
Heat Index 94 °F
Dew Point 76 °F
Humidity 75%
Rainfall Not available.
Snow Depth Not available.
6:44 AM 8:08 PM
Waning Crescent, 9% visible
METAR KPBI 310053Z 14010KT 10SM FEW025 SCT035 SCT250 29/23 A3006 RMK AO2 SLP179 T02940233
Pressure 30.06 in
Visibility 10.0 miles
Clouds Few 2500 ft
Scattered Clouds 3500 ft
Scattered Clouds 25000 ft
Heat Index 94 °F
Dew Point 76 °F
Humidity 75%
Rainfall Not available.
Snow Depth Not available.
6:44 AM 8:08 PM
Waning Crescent, 9% visible
METAR KPBI 310053Z 14010KT 10SM FEW025 SCT035 SCT250 29/23 A3006 RMK AO2 SLP179 T02940233

10-Day Weather Forecast

Almanac

Astronomy

Jul. 30, 2016 Rise Set
Actual Time
Civil Twilight
Nautical Twilight
Astronomical Twilight
Moon
Length of Visible Light
Length of Day
Tomorrow will be .
, % of the Moon is Illuminated

Today's Extremes

State Highs State Lows

Community

WunderPhotos

Upload Photos

1,928,699 photos uploaded!

WunderBlog® & News

Nearby

Air Quality

  Air Quality AQ Index Pollutant
Not available.

Snow Depth

Station Depth Elevation

Earthquake Activity

City Distance Mag. Time & Date
Minimum magnitude displayed is 2.5.

Coastal Water Temperatures

Place Temperature

Stations

Nearby Weather Stations

Station Location Temp. Windchill Dew Point Humidity Wind Precip. Elev Updated Type
                   

Watches & Warnings

There are currently no watches in effect.